createdAt,value
2017-12-22T00:00:34.680Z,0
2017-12-22T00:01:34.213Z,0
2017-12-22T00:02:34.636Z,0
2017-12-22T00:03:34.626Z,0
2017-12-22T00:04:34.670Z,0
2017-12-22T00:05:34.660Z,0
2017-12-22T00:06:34.331Z,0
2017-12-22T00:07:34.584Z,0
2017-12-22T00:08:34.600Z,0
2017-12-22T00:09:34.595Z,0
2017-12-22T00:10:34.575Z,0
2017-12-22T00:11:34.630Z,0
2017-12-22T00:12:34.524Z,0
2017-12-22T00:13:34.530Z,0
2017-12-22T00:14:34.554Z,0
2017-12-22T00:15:34.545Z,0
2017-12-22T00:16:34.238Z,0
2017-12-22T00:17:34.503Z,0
2017-12-22T00:18:34.465Z,0
2017-12-22T00:19:34.191Z,0
2017-12-22T00:20:33.971Z,0
2017-12-22T00:21:34.422Z,0
2017-12-22T00:22:33.934Z,0
2017-12-22T00:23:34.412Z,0
2017-12-22T00:24:34.130Z,0
2017-12-22T00:25:34.376Z,0
2017-12-22T00:26:34.352Z,0
2017-12-22T00:27:33.857Z,0
2017-12-22T00:28:34.370Z,0
2017-12-22T00:29:33.624Z,0
2017-12-22T00:30:34.106Z,0
2017-12-22T00:31:34.348Z,0
2017-12-22T00:32:34.342Z,0
2017-12-22T00:33:34.291Z,0
2017-12-22T00:34:34.284Z,0
2017-12-22T00:35:34.018Z,0
2017-12-22T00:36:34.253Z,0
2017-12-22T00:37:34.258Z,0
2017-12-22T00:38:34.255Z,0
2017-12-22T00:39:34.235Z,0
2017-12-22T00:40:34.222Z,0
2017-12-22T00:41:34.193Z,0
2017-12-22T00:42:34.180Z,0
2017-12-22T00:43:34.197Z,0
2017-12-22T00:44:33.920Z,0
2017-12-22T00:45:34.161Z,0
2017-12-22T00:46:34.132Z,0
2017-12-22T00:47:34.156Z,0
2017-12-22T00:48:33.865Z,0
2017-12-22T00:49:34.120Z,0
2017-12-22T00:50:34.104Z,0
2017-12-22T00:51:34.085Z,0
2017-12-22T00:52:34.085Z,0
2017-12-22T00:53:34.088Z,0
2017-12-22T00:54:34.048Z,0
2017-12-22T00:55:34.032Z,0
2017-12-22T00:56:34.023Z,0
2017-12-22T00:57:34.009Z,0
2017-12-22T00:58:34.009Z,0
2017-12-22T00:59:34.000Z,0
2017-12-22T01:00:33.971Z,0
2017-12-22T01:01:33.990Z,0
2017-12-22T01:02:33.960Z,0
2017-12-22T01:03:33.690Z,0
2017-12-22T01:04:33.933Z,0
2017-12-22T01:05:33.943Z,0
2017-12-22T01:06:33.929Z,0
2017-12-22T01:07:33.917Z,0
2017-12-22T01:08:33.647Z,0
2017-12-22T01:09:33.903Z,0
2017-12-22T01:10:33.865Z,0
2017-12-22T01:11:33.624Z,0
2017-12-22T01:12:33.848Z,0
2017-12-22T01:13:33.822Z,0
2017-12-22T01:14:33.836Z,0
2017-12-22T01:15:33.557Z,0
2017-12-22T01:16:33.807Z,0
2017-12-22T01:17:33.796Z,0
2017-12-22T01:18:33.765Z,0
2017-12-22T01:19:33.770Z,0
2017-12-22T01:20:33.769Z,0
2017-12-22T01:21:33.749Z,0
2017-12-22T01:22:33.731Z,0
2017-12-22T01:23:33.739Z,0
2017-12-22T01:24:33.708Z,0
2017-12-22T01:25:33.200Z,0
2017-12-22T01:26:33.433Z,0
2017-12-22T01:27:33.691Z,0
2017-12-22T01:28:33.660Z,0
2017-12-22T01:29:33.651Z,0
2017-12-22T01:30:33.121Z,0
2017-12-22T01:31:33.369Z,0
2017-12-22T01:32:33.621Z,0
2017-12-22T01:33:33.346Z,0
2017-12-22T01:34:33.330Z,0
2017-12-22T01:35:33.584Z,0
2017-12-22T01:36:33.605Z,0
2017-12-22T01:37:33.556Z,0
2017-12-22T01:38:33.283Z,0
2017-12-22T01:39:33.552Z,0
2017-12-22T01:40:33.519Z,0
2017-12-22T01:41:33.253Z,0
2017-12-22T01:42:33.489Z,0
2017-12-22T01:43:33.216Z,0
2017-12-22T01:44:33.501Z,0
2017-12-22T01:45:33.470Z,0
2017-12-22T01:46:33.465Z,0
2017-12-22T01:47:33.466Z,0
2017-12-22T01:48:33.428Z,0
2017-12-22T01:49:33.423Z,0
2017-12-22T01:50:33.420Z,0
2017-12-22T01:51:33.461Z,0
2017-12-22T01:52:33.390Z,0
2017-12-22T01:53:33.389Z,0
2017-12-22T01:54:33.364Z,0
2017-12-22T01:55:33.350Z,0
2017-12-22T01:56:33.071Z,0
2017-12-22T01:57:33.360Z,0
2017-12-22T01:58:33.305Z,0
2017-12-22T01:59:33.289Z,0
2017-12-22T02:00:33.292Z,0
2017-12-22T02:01:33.266Z,0
2017-12-22T02:02:33.267Z,0
2017-12-22T02:03:32.996Z,0
2017-12-22T02:04:33.255Z,0
2017-12-22T02:05:33.246Z,0
2017-12-22T02:06:33.233Z,0
2017-12-22T02:07:33.208Z,0
2017-12-22T02:08:33.191Z,0
2017-12-22T02:09:33.194Z,0
2017-12-22T02:10:33.182Z,0
2017-12-22T02:11:32.647Z,0
2017-12-22T02:12:33.163Z,0
2017-12-22T02:13:33.148Z,0
2017-12-22T02:14:32.877Z,0
2017-12-22T02:15:33.135Z,0
2017-12-22T02:16:32.851Z,0
2017-12-22T02:17:33.117Z,0
2017-12-22T02:18:33.081Z,0
2017-12-22T02:19:33.073Z,0
2017-12-22T02:20:32.803Z,0
2017-12-22T02:21:32.786Z,0
2017-12-22T02:22:33.049Z,0
2017-12-22T02:23:33.040Z,0
2017-12-22T02:24:33.016Z,0
2017-12-22T02:25:33.033Z,0
2017-12-22T02:26:32.997Z,0
2017-12-22T02:27:32.993Z,0
2017-12-22T02:28:32.470Z,0
2017-12-22T02:29:32.704Z,0
2017-12-22T02:30:32.961Z,0
2017-12-22T02:31:32.950Z,0
2017-12-22T02:32:32.960Z,0
2017-12-22T02:33:32.921Z,0
2017-12-22T02:34:32.896Z,0
2017-12-22T02:35:32.369Z,0
2017-12-22T02:36:32.901Z,0
2017-12-22T02:37:32.873Z,0
2017-12-22T02:38:32.886Z,0
2017-12-22T02:39:32.855Z,0
2017-12-22T02:40:32.843Z,0
2017-12-22T02:41:32.568Z,0
2017-12-22T02:42:32.821Z,0
2017-12-22T02:43:32.822Z,0
2017-12-22T02:44:32.791Z,0
2017-12-22T02:45:32.802Z,0
2017-12-22T02:46:32.767Z,0
2017-12-22T02:47:32.781Z,0
2017-12-22T02:48:32.768Z,0
2017-12-22T02:49:32.749Z,0
2017-12-22T02:50:32.740Z,0
2017-12-22T02:51:32.724Z,0
2017-12-22T02:52:32.716Z,0
2017-12-22T02:53:32.700Z,0
2017-12-22T02:54:32.726Z,0
2017-12-22T02:55:32.696Z,0
2017-12-22T02:56:32.660Z,0
2017-12-22T02:57:32.657Z,0
2017-12-22T02:58:32.648Z,0
2017-12-22T02:59:33.042Z,0
2017-12-22T03:00:32.608Z,0
2017-12-22T03:01:32.597Z,0
2017-12-22T03:02:32.592Z,0
2017-12-22T03:03:32.589Z,0
2017-12-22T03:04:32.572Z,0
2017-12-22T03:05:32.579Z,0
2017-12-22T03:06:32.290Z,0
2017-12-22T03:07:32.519Z,0
2017-12-22T03:08:32.551Z,0
2017-12-22T03:09:32.510Z,0
2017-12-22T03:10:32.484Z,0
2017-12-22T03:11:32.220Z,0
2017-12-22T03:12:32.462Z,0
2017-12-22T03:13:32.470Z,0
2017-12-22T03:14:32.460Z,0
2017-12-22T03:15:32.439Z,0
2017-12-22T03:16:32.166Z,0
2017-12-22T03:17:32.153Z,0
2017-12-22T03:18:32.402Z,0
2017-12-22T03:19:32.124Z,0
2017-12-22T03:20:32.398Z,0
2017-12-22T03:21:32.354Z,0
2017-12-22T03:22:32.091Z,0
2017-12-22T03:23:32.357Z,0
2017-12-22T03:24:32.077Z,0
2017-12-22T03:25:32.324Z,0
2017-12-22T03:26:32.311Z,0
2017-12-22T03:27:32.306Z,0
2017-12-22T03:28:32.281Z,0
2017-12-22T03:29:32.275Z,0
2017-12-22T03:30:32.301Z,0
2017-12-22T03:31:32.009Z,0
2017-12-22T03:32:32.243Z,0
2017-12-22T03:33:31.996Z,0
2017-12-22T03:34:32.218Z,0
2017-12-22T03:35:32.222Z,0
2017-12-22T03:36:32.201Z,0
2017-12-22T03:37:32.185Z,0
2017-12-22T03:38:31.925Z,0
2017-12-22T03:39:31.902Z,0
2017-12-22T03:40:32.148Z,0
2017-12-22T03:41:32.143Z,0
2017-12-22T03:42:32.150Z,0
2017-12-22T03:43:32.115Z,0
2017-12-22T03:44:32.108Z,0
2017-12-22T03:45:32.109Z,0
2017-12-22T03:46:32.075Z,0
2017-12-22T03:47:32.083Z,0
2017-12-22T03:48:31.826Z,0
2017-12-22T03:49:32.056Z,0
2017-12-22T03:50:32.051Z,0
2017-12-22T03:51:32.042Z,0
2017-12-22T03:52:32.028Z,0
2017-12-22T03:53:32.028Z,0
2017-12-22T03:54:32.011Z,0
2017-12-22T03:55:31.997Z,0
2017-12-22T03:56:32.402Z,0
2017-12-22T03:57:31.971Z,0
2017-12-22T03:58:31.957Z,0
2017-12-22T03:59:31.678Z,0
2017-12-22T04:00:31.929Z,0
2017-12-22T04:01:31.946Z,0
2017-12-22T04:02:31.647Z,0
2017-12-22T04:03:31.910Z,0
2017-12-22T04:04:31.917Z,0
2017-12-22T04:05:31.875Z,0
2017-12-22T04:06:31.601Z,0
2017-12-22T04:07:31.856Z,0
2017-12-22T04:08:31.848Z,0
2017-12-22T04:09:31.881Z,0
2017-12-22T04:10:31.802Z,0
2017-12-22T04:11:31.810Z,0
2017-12-22T04:12:31.795Z,0
2017-12-22T04:13:31.782Z,0
2017-12-22T04:14:31.775Z,0
2017-12-22T04:15:31.759Z,0
2017-12-22T04:16:31.735Z,0
2017-12-22T04:17:31.748Z,0
2017-12-22T04:18:31.744Z,0
2017-12-22T04:19:31.460Z,0
2017-12-22T04:20:31.704Z,0
2017-12-22T04:21:31.423Z,0
2017-12-22T04:22:31.687Z,0
2017-12-22T04:23:31.676Z,0
2017-12-22T04:24:31.657Z,0
2017-12-22T04:25:31.393Z,0
2017-12-22T04:26:31.642Z,0
2017-12-22T04:27:31.622Z,0
2017-12-22T04:28:31.625Z,0
2017-12-22T04:29:31.619Z,0
2017-12-22T04:30:31.609Z,0
2017-12-22T04:31:31.569Z,0
2017-12-22T04:32:31.570Z,0
2017-12-22T04:33:31.578Z,0
2017-12-22T04:34:31.561Z,0
2017-12-22T04:35:31.544Z,0
2017-12-22T04:36:31.521Z,0
2017-12-22T04:37:31.527Z,0
2017-12-22T04:38:31.513Z,0
2017-12-22T04:39:31.477Z,0
2017-12-22T04:40:31.488Z,0
2017-12-22T04:41:31.216Z,0
2017-12-22T04:42:31.454Z,0
2017-12-22T04:43:31.434Z,0
2017-12-22T04:44:31.438Z,0
2017-12-22T04:45:31.453Z,0
2017-12-22T04:46:31.418Z,0
2017-12-22T04:47:31.416Z,0
2017-12-22T04:48:31.392Z,0
2017-12-22T04:49:31.373Z,0
2017-12-22T04:50:31.654Z,0
2017-12-22T04:51:31.367Z,0
2017-12-22T04:52:31.358Z,0
2017-12-22T04:53:31.340Z,0
2017-12-22T04:54:31.323Z,0
2017-12-22T04:55:31.055Z,0
2017-12-22T04:56:31.298Z,0
2017-12-22T04:57:31.042Z,0
2017-12-22T04:58:31.012Z,0
2017-12-22T04:59:31.334Z,0
2017-12-22T05:00:31.264Z,0
2017-12-22T05:01:31.245Z,0
2017-12-22T05:02:31.243Z,0
2017-12-22T05:03:31.224Z,0
2017-12-22T05:04:31.206Z,0
2017-12-22T05:05:31.212Z,0
2017-12-22T05:06:31.193Z,0
2017-12-22T05:07:31.175Z,0
2017-12-22T05:08:31.155Z,0
2017-12-22T05:09:31.152Z,0
2017-12-22T05:10:31.136Z,0
2017-12-22T05:11:30.873Z,0
2017-12-22T05:12:31.112Z,0
2017-12-22T05:13:31.116Z,0
2017-12-22T05:14:31.135Z,0
2017-12-22T05:15:31.089Z,0
2017-12-22T05:16:31.073Z,0
2017-12-22T05:17:30.812Z,0
2017-12-22T05:18:31.081Z,0
2017-12-22T05:19:31.050Z,0
2017-12-22T05:20:31.050Z,0
2017-12-22T05:21:31.117Z,0
2017-12-22T05:22:30.994Z,0
2017-12-22T05:23:31.014Z,0
2017-12-22T05:24:30.716Z,0
2017-12-22T05:25:30.966Z,0
2017-12-22T05:26:30.968Z,0
2017-12-22T05:27:30.954Z,0
2017-12-22T05:28:30.956Z,0
2017-12-22T05:29:30.933Z,0
2017-12-22T05:30:30.915Z,0
2017-12-22T05:31:30.748Z,0
2017-12-22T05:32:30.905Z,0
2017-12-22T05:33:30.637Z,0
2017-12-22T05:34:30.878Z,0
2017-12-22T05:35:30.853Z,0
2017-12-22T05:36:30.863Z,0
2017-12-22T05:37:30.580Z,0
2017-12-22T05:38:30.827Z,0
2017-12-22T05:39:30.563Z,0
2017-12-22T05:40:30.812Z,0
2017-12-22T05:41:30.809Z,0
2017-12-22T05:42:30.529Z,0
2017-12-22T05:43:30.779Z,0
2017-12-22T05:44:30.504Z,0
2017-12-22T05:45:30.749Z,0
2017-12-22T05:46:30.743Z,0
2017-12-22T05:47:30.503Z,0
2017-12-22T05:48:30.716Z,0
2017-12-22T05:49:30.733Z,0
2017-12-22T05:50:30.431Z,0
2017-12-22T05:51:30.444Z,0
2017-12-22T05:52:30.670Z,0
2017-12-22T05:53:30.431Z,0
2017-12-22T05:54:30.668Z,0
2017-12-22T05:55:30.642Z,0
2017-12-22T05:56:30.724Z,0
2017-12-22T05:57:30.099Z,0
2017-12-22T05:58:30.364Z,0
2017-12-22T05:59:30.596Z,0
2017-12-22T06:00:30.346Z,0
2017-12-22T06:01:30.573Z,0
2017-12-22T06:02:30.566Z,0
2017-12-22T06:03:30.574Z,0
2017-12-22T06:04:30.548Z,0
2017-12-22T06:05:30.542Z,0
2017-12-22T06:06:30.529Z,0
2017-12-22T06:07:30.525Z,0
2017-12-22T06:08:30.537Z,0
2017-12-22T06:09:30.494Z,0
2017-12-22T06:10:30.240Z,0
2017-12-22T06:11:30.478Z,0
2017-12-22T06:12:30.452Z,0
2017-12-22T06:13:30.448Z,0
2017-12-22T06:14:30.441Z,0
2017-12-22T06:15:30.469Z,0
2017-12-22T06:16:30.427Z,0
2017-12-22T06:17:30.389Z,0
2017-12-22T06:18:30.436Z,0
2017-12-22T06:19:30.386Z,0
2017-12-22T06:20:30.364Z,0
2017-12-22T06:21:30.363Z,0
2017-12-22T06:22:30.345Z,0
2017-12-22T06:23:30.344Z,0
2017-12-22T06:24:30.318Z,0
2017-12-22T06:25:30.378Z,0
2017-12-22T06:26:30.306Z,0
2017-12-22T06:27:30.292Z,0
2017-12-22T06:28:30.283Z,0
2017-12-22T06:29:30.287Z,0
2017-12-22T06:30:30.270Z,0
2017-12-22T06:31:30.260Z,0
2017-12-22T06:32:30.241Z,0
2017-12-22T06:33:30.230Z,0
2017-12-22T06:34:30.296Z,0
2017-12-22T06:35:30.198Z,0
2017-12-22T06:36:30.200Z,0
2017-12-22T06:37:30.202Z,0
2017-12-22T06:38:30.168Z,0
2017-12-22T06:39:29.935Z,0
2017-12-22T06:40:30.209Z,0
2017-12-22T06:41:30.231Z,0
2017-12-22T06:42:30.149Z,0
2017-12-22T06:43:29.857Z,0
2017-12-22T06:44:30.113Z,0
2017-12-22T06:45:30.117Z,0
2017-12-22T06:46:30.089Z,0
2017-12-22T06:47:30.081Z,0
2017-12-22T06:48:29.815Z,0
2017-12-22T06:49:29.790Z,0
2017-12-22T06:50:30.038Z,0
2017-12-22T06:51:30.032Z,0
2017-12-22T06:52:30.062Z,0
2017-12-22T06:53:29.792Z,0
2017-12-22T06:54:30.297Z,0
2017-12-22T06:55:30.003Z,0
2017-12-22T06:56:29.732Z,0
2017-12-22T06:57:29.966Z,0
2017-12-22T06:58:29.959Z,0
2017-12-22T06:59:29.963Z,0
2017-12-22T07:00:29.937Z,0
2017-12-22T07:01:29.664Z,0
2017-12-22T07:02:29.658Z,0
2017-12-22T07:03:29.648Z,0
2017-12-22T07:04:29.381Z,0
2017-12-22T07:05:29.935Z,0
2017-12-22T07:06:29.888Z,0
2017-12-22T07:07:29.607Z,0
2017-12-22T07:08:29.863Z,0
2017-12-22T07:09:29.848Z,0
2017-12-22T07:10:29.580Z,0
2017-12-22T07:11:29.578Z,0
2017-12-22T07:12:29.542Z,0
2017-12-22T07:13:29.789Z,5
2017-12-22T07:14:29.540Z,5
2017-12-22T07:15:30.036Z,5
2017-12-22T07:16:29.766Z,5
2017-12-22T07:17:29.498Z,5
2017-12-22T07:18:29.742Z,5
2017-12-22T07:19:29.736Z,5
2017-12-22T07:20:29.474Z,5
2017-12-22T07:21:29.720Z,5
2017-12-22T07:22:29.743Z,5
2017-12-22T07:23:29.704Z,10
2017-12-22T07:24:29.679Z,10
2017-12-22T07:25:29.665Z,10
2017-12-22T07:26:29.667Z,10
2017-12-22T07:27:29.648Z,10
2017-12-22T07:28:29.638Z,10
2017-12-22T07:29:29.647Z,15
2017-12-22T07:30:29.625Z,15
2017-12-22T07:31:29.586Z,15
2017-12-22T07:32:29.592Z,20
2017-12-22T07:33:29.320Z,20
2017-12-22T07:34:29.569Z,20
2017-12-22T07:35:29.545Z,25
2017-12-22T07:36:29.291Z,25
2017-12-22T07:37:29.539Z,25
2017-12-22T07:38:29.521Z,30
2017-12-22T07:39:29.311Z,30
2017-12-22T07:40:29.517Z,30
2017-12-22T07:41:29.558Z,30
2017-12-22T07:42:29.505Z,30
2017-12-22T07:43:29.485Z,30
2017-12-22T07:44:29.506Z,30
2017-12-22T07:45:29.446Z,30
2017-12-22T07:46:29.455Z,30
2017-12-22T07:47:29.189Z,30
2017-12-22T07:48:29.437Z,25
2017-12-22T07:49:28.903Z,30
2017-12-22T07:50:29.396Z,25
2017-12-22T07:51:29.388Z,30
2017-12-22T07:52:29.395Z,35
2017-12-22T07:53:29.120Z,40
2017-12-22T07:54:29.465Z,45
2017-12-22T07:55:29.406Z,45
2017-12-22T07:56:29.319Z,50
2017-12-22T07:57:29.325Z,50
2017-12-22T07:58:29.310Z,50
2017-12-22T07:59:29.304Z,55
2017-12-22T08:00:29.031Z,55
2017-12-22T08:01:29.276Z,55
2017-12-22T08:02:29.295Z,55
2017-12-22T08:03:29.049Z,55
2017-12-22T08:04:29.310Z,55
2017-12-22T08:05:29.004Z,60
2017-12-22T08:06:29.251Z,60
2017-12-22T08:07:29.204Z,65
2017-12-22T08:08:29.265Z,65
2017-12-22T08:09:28.974Z,70
2017-12-22T08:10:29.218Z,70
2017-12-22T08:11:29.223Z,70
2017-12-22T08:12:29.205Z,70
2017-12-22T08:13:29.190Z,70
2017-12-22T08:14:29.163Z,70
2017-12-22T08:15:29.150Z,75
2017-12-22T08:16:29.145Z,70
2017-12-22T08:17:29.148Z,70
2017-12-22T08:18:28.877Z,70
2017-12-22T08:19:29.105Z,70
2017-12-22T08:20:29.650Z,65
2017-12-22T08:21:28.829Z,65
2017-12-22T08:22:29.073Z,65
2017-12-22T08:23:29.065Z,65
2017-12-22T08:24:29.058Z,65
2017-12-22T08:25:29.124Z,65
2017-12-22T08:26:29.029Z,65
2017-12-22T08:27:29.014Z,65
2017-12-22T08:28:28.745Z,70
2017-12-22T08:29:28.999Z,65
2017-12-22T08:30:29.019Z,65
2017-12-22T08:31:29.038Z,65
2017-12-22T08:32:28.443Z,60
2017-12-22T08:33:28.983Z,60
2017-12-22T08:34:28.940Z,65
2017-12-22T08:35:28.930Z,65
2017-12-22T08:36:28.395Z,65
2017-12-22T08:37:28.909Z,65
2017-12-22T08:38:28.646Z,70
2017-12-22T08:39:28.898Z,75
2017-12-22T08:40:28.870Z,75
2017-12-22T08:41:28.346Z,75
2017-12-22T08:42:28.888Z,80
2017-12-22T08:43:28.840Z,85
2017-12-22T08:44:28.904Z,80
2017-12-22T08:45:28.828Z,80
2017-12-22T08:46:28.897Z,75
2017-12-22T08:47:28.879Z,80
2017-12-22T08:48:28.894Z,80
2017-12-22T08:49:28.827Z,85
2017-12-22T08:50:28.531Z,100
2017-12-22T08:51:28.758Z,115
2017-12-22T08:52:28.758Z,130
2017-12-22T08:53:28.751Z,140
2017-12-22T08:54:28.748Z,145
2017-12-22T08:55:28.732Z,145
2017-12-22T08:56:28.470Z,140
2017-12-22T08:57:28.722Z,135
2017-12-22T08:58:28.692Z,130
2017-12-22T08:59:28.667Z,125
2017-12-22T09:00:28.684Z,125
2017-12-22T09:01:28.666Z,120
2017-12-22T09:02:28.657Z,120
2017-12-22T09:03:28.658Z,115
2017-12-22T09:04:28.636Z,115
2017-12-22T09:05:28.642Z,110
2017-12-22T09:06:28.713Z,105
2017-12-22T09:07:28.638Z,100
2017-12-22T09:08:28.594Z,90
2017-12-22T09:09:28.668Z,85
2017-12-22T09:10:28.612Z,85
2017-12-22T09:11:28.658Z,80
2017-12-22T09:12:28.591Z,80
2017-12-22T09:13:28.082Z,80
2017-12-22T09:14:28.597Z,80
2017-12-22T09:15:28.520Z,75
2017-12-22T09:16:28.537Z,75
2017-12-22T09:17:28.548Z,75
2017-12-22T09:18:28.547Z,70
2017-12-22T09:19:28.568Z,65
2017-12-22T09:20:28.505Z,65
2017-12-22T09:21:28.478Z,65
2017-12-22T09:22:28.484Z,70
2017-12-22T09:23:28.209Z,80
2017-12-22T09:24:28.694Z,85
2017-12-22T09:25:28.490Z,80
2017-12-22T09:26:28.174Z,75
2017-12-22T09:27:28.483Z,85
2017-12-22T09:28:28.168Z,95
2017-12-22T09:29:28.410Z,85
2017-12-22T09:30:28.411Z,70
2017-12-22T09:31:28.106Z,75
2017-12-22T09:32:28.109Z,80
2017-12-22T09:33:28.459Z,90
2017-12-22T09:34:28.352Z,95
2017-12-22T09:35:28.322Z,105
2017-12-22T09:36:28.095Z,105
2017-12-22T09:37:28.379Z,115
2017-12-22T09:38:28.120Z,125
2017-12-22T09:39:28.376Z,135
2017-12-22T09:40:28.302Z,135
2017-12-22T09:41:28.317Z,135
2017-12-22T09:42:28.000Z,135
2017-12-22T09:43:28.255Z,135
2017-12-22T09:44:28.250Z,130
2017-12-22T09:45:28.231Z,130
2017-12-22T09:46:28.282Z,125
2017-12-22T09:47:27.946Z,130
2017-12-22T09:48:27.972Z,125
2017-12-22T09:49:28.222Z,120
2017-12-22T09:50:28.218Z,110
2017-12-22T09:51:28.216Z,100
2017-12-22T09:52:28.167Z,95
2017-12-22T09:53:27.704Z,100
2017-12-22T09:54:28.232Z,120
2017-12-22T09:55:28.386Z,130
2017-12-22T09:56:27.882Z,140
2017-12-22T09:57:28.134Z,155
2017-12-22T09:58:28.133Z,160
2017-12-22T09:59:28.100Z,160
2017-12-22T10:00:28.076Z,160
2017-12-22T10:01:28.122Z,160
2017-12-22T10:02:28.085Z,160
2017-12-22T10:03:27.822Z,165
2017-12-22T10:04:28.132Z,170
2017-12-22T10:05:28.047Z,180
2017-12-22T10:06:27.884Z,190
2017-12-22T10:07:27.813Z,195
2017-12-22T10:08:27.786Z,195
2017-12-22T10:09:28.046Z,200
2017-12-22T10:10:28.005Z,200
2017-12-22T10:11:27.995Z,200
2017-12-22T10:12:28.038Z,205
2017-12-22T10:13:28.004Z,200
2017-12-22T10:14:27.962Z,200
2017-12-22T10:15:27.947Z,200
2017-12-22T10:16:27.944Z,205
2017-12-22T10:17:27.991Z,200
2017-12-22T10:18:27.769Z,205
2017-12-22T10:19:28.013Z,195
2017-12-22T10:20:27.980Z,175
2017-12-22T10:21:27.710Z,160
2017-12-22T10:22:27.984Z,150
2017-12-22T10:23:28.076Z,130
2017-12-22T10:24:27.662Z,135
2017-12-22T10:25:28.353Z,150
2017-12-22T10:26:28.260Z,155
2017-12-22T10:27:27.683Z,200
2017-12-22T10:28:27.847Z,185
2017-12-22T10:29:27.569Z,150
2017-12-22T10:30:27.875Z,160
2017-12-22T10:31:27.782Z,190
2017-12-22T10:32:27.784Z,200
2017-12-22T10:33:27.791Z,220
2017-12-22T10:34:27.810Z,235
2017-12-22T10:35:27.524Z,200
2017-12-22T10:36:27.974Z,185
2017-12-22T10:37:27.760Z,180
2017-12-22T10:38:27.819Z,170
2017-12-22T10:39:27.741Z,160
2017-12-22T10:40:27.789Z,155
2017-12-22T10:41:27.752Z,150
2017-12-22T10:42:27.977Z,150
2017-12-22T10:43:27.465Z,135
2017-12-22T10:44:27.831Z,130
2017-12-22T10:45:27.742Z,130
2017-12-22T10:46:27.686Z,105
2017-12-22T10:47:27.702Z,85
2017-12-22T10:48:27.656Z,80
2017-12-22T10:49:27.649Z,80
2017-12-22T10:50:27.645Z,90
2017-12-22T10:51:27.649Z,80
2017-12-22T10:52:27.615Z,80
2017-12-22T10:53:27.607Z,75
2017-12-22T10:54:27.623Z,65
2017-12-22T10:55:27.569Z,65
2017-12-22T10:56:27.571Z,65
2017-12-22T10:57:27.312Z,70
2017-12-22T10:58:27.812Z,65
2017-12-22T10:59:27.540Z,55
2017-12-22T11:00:27.619Z,45
2017-12-22T11:01:27.519Z,50
2017-12-22T11:02:27.563Z,45
2017-12-22T11:03:27.264Z,60
2017-12-22T11:04:27.276Z,50
2017-12-22T11:05:27.240Z,45
2017-12-22T11:06:27.512Z,35
2017-12-22T11:07:27.208Z,30
2017-12-22T11:08:27.263Z,30
2017-12-22T11:09:27.451Z,30
2017-12-22T11:10:27.511Z,30
2017-12-22T11:11:27.426Z,25
2017-12-22T11:12:27.433Z,30
2017-12-22T11:13:27.436Z,30
2017-12-22T11:14:27.411Z,35
2017-12-22T11:15:27.401Z,45
2017-12-22T11:16:27.428Z,55
2017-12-22T11:17:27.434Z,65
2017-12-22T11:18:27.400Z,100
2017-12-22T11:19:27.355Z,145
2017-12-22T11:20:27.092Z,130
2017-12-22T11:21:27.327Z,95
2017-12-22T11:22:27.382Z,85
2017-12-22T11:23:27.091Z,105
2017-12-22T11:24:27.036Z,135
2017-12-22T11:25:27.294Z,140
2017-12-22T11:26:27.037Z,120
2017-12-22T11:27:27.356Z,115
2017-12-22T11:28:27.030Z,135
2017-12-22T11:29:27.060Z,125
2017-12-22T11:30:27.286Z,105
2017-12-22T11:31:27.275Z,120
2017-12-22T11:32:26.979Z,125
2017-12-22T11:33:27.160Z,120
2017-12-22T11:34:27.208Z,120
2017-12-22T11:35:27.227Z,125
2017-12-22T11:36:26.957Z,130
2017-12-22T11:37:27.206Z,130
2017-12-22T11:38:26.952Z,120
2017-12-22T11:39:26.937Z,135
2017-12-22T11:40:28.060Z,135
2017-12-22T11:41:27.162Z,115
2017-12-22T11:42:27.146Z,100
2017-12-22T11:43:27.142Z,105
2017-12-22T11:44:27.108Z,130
2017-12-22T11:45:27.367Z,150
2017-12-22T11:46:26.873Z,155
2017-12-22T11:47:27.121Z,125
2017-12-22T11:48:27.089Z,100
2017-12-22T11:49:27.098Z,90
2017-12-22T11:50:27.078Z,95
2017-12-22T11:51:27.051Z,80
2017-12-22T11:52:27.047Z,65
2017-12-22T11:53:27.040Z,65
2017-12-22T11:54:27.038Z,65
2017-12-22T11:55:27.023Z,80
2017-12-22T11:56:26.995Z,80
2017-12-22T11:57:27.049Z,75
2017-12-22T11:58:26.980Z,100
2017-12-22T11:59:26.965Z,95
2017-12-22T12:00:26.985Z,110
2017-12-22T12:01:26.952Z,95
2017-12-22T12:02:26.949Z,90
2017-12-22T12:03:26.921Z,90
2017-12-22T12:04:26.908Z,80
2017-12-22T12:05:26.919Z,85
2017-12-22T12:06:26.906Z,85
2017-12-22T12:07:26.891Z,95
2017-12-22T12:08:26.893Z,115
2017-12-22T12:09:26.874Z,110
2017-12-22T12:10:26.862Z,115
2017-12-22T12:11:26.836Z,130
2017-12-22T12:12:26.838Z,145
2017-12-22T12:13:26.826Z,135
2017-12-22T12:14:26.599Z,115
2017-12-22T12:15:26.816Z,130
2017-12-22T12:16:26.854Z,130
2017-12-22T12:17:26.535Z,120
2017-12-22T12:18:26.771Z,120
2017-12-22T12:19:26.840Z,120
2017-12-22T12:20:26.534Z,115
2017-12-22T12:21:26.760Z,110
2017-12-22T12:22:26.800Z,80
2017-12-22T12:23:26.753Z,85
2017-12-22T12:24:26.459Z,105
2017-12-22T12:25:26.746Z,130
2017-12-22T12:26:26.453Z,125
2017-12-22T12:27:26.470Z,115
2017-12-22T12:28:26.804Z,135
2017-12-22T12:29:26.418Z,135
2017-12-22T12:30:26.804Z,130
2017-12-22T12:31:26.650Z,140
2017-12-22T12:32:26.665Z,135
2017-12-22T12:33:26.639Z,115
2017-12-22T12:34:26.651Z,100
2017-12-22T12:35:26.372Z,75
2017-12-22T12:36:26.357Z,70
2017-12-22T12:37:26.606Z,85
2017-12-22T12:38:26.631Z,95
2017-12-22T12:39:26.588Z,80
2017-12-22T12:40:26.572Z,75
2017-12-22T12:41:26.313Z,85
2017-12-22T12:42:26.576Z,115
2017-12-22T12:43:26.595Z,115
2017-12-22T12:44:26.548Z,105
2017-12-22T12:45:26.548Z,115
2017-12-22T12:46:26.599Z,125
2017-12-22T12:47:26.315Z,135
2017-12-22T12:48:26.511Z,135
2017-12-22T12:49:26.520Z,135
2017-12-22T12:50:26.220Z,135
2017-12-22T12:51:26.473Z,140
2017-12-22T12:52:26.456Z,140
2017-12-22T12:53:26.461Z,145
2017-12-22T12:54:26.456Z,140
2017-12-22T12:55:26.414Z,140
2017-12-22T12:56:26.427Z,150
2017-12-22T12:57:26.435Z,165
2017-12-22T12:58:26.423Z,180
2017-12-22T12:59:26.421Z,185
2017-12-22T13:00:26.375Z,180
2017-12-22T13:01:26.356Z,175
2017-12-22T13:02:26.354Z,170
2017-12-22T13:03:26.367Z,170
2017-12-22T13:04:26.436Z,175
2017-12-22T13:05:26.333Z,175
2017-12-22T13:06:26.016Z,175
2017-12-22T13:07:26.331Z,180
2017-12-22T13:08:26.343Z,175
2017-12-22T13:09:26.304Z,165
2017-12-22T13:10:26.331Z,160
2017-12-22T13:11:26.025Z,155
2017-12-22T13:12:26.018Z,150
2017-12-22T13:13:26.129Z,145
2017-12-22T13:14:26.269Z,145
2017-12-22T13:15:26.312Z,145
2017-12-22T13:16:26.326Z,140
2017-12-22T13:17:26.220Z,135
2017-12-22T13:18:26.313Z,130
2017-12-22T13:19:25.964Z,120
2017-12-22T13:20:26.236Z,115
2017-12-22T13:21:26.215Z,110
2017-12-22T13:22:26.209Z,115
2017-12-22T13:23:26.265Z,115
2017-12-22T13:24:26.326Z,110
2017-12-22T13:25:26.155Z,115
2017-12-22T13:26:26.179Z,115
2017-12-22T13:27:25.897Z,115
2017-12-22T13:28:25.871Z,120
2017-12-22T13:29:26.248Z,115
2017-12-22T13:30:26.123Z,115
2017-12-22T13:31:25.830Z,110
2017-12-22T13:32:26.105Z,110
2017-12-22T13:33:26.122Z,105
2017-12-22T13:34:25.828Z,105
2017-12-22T13:35:25.803Z,100
2017-12-22T13:36:25.800Z,100
2017-12-22T13:37:25.779Z,95
2017-12-22T13:38:26.053Z,95
2017-12-22T13:39:26.046Z,90
2017-12-22T13:40:25.749Z,90
2017-12-22T13:41:25.769Z,85
2017-12-22T13:42:26.196Z,85
2017-12-22T13:43:26.036Z,80
2017-12-22T13:44:25.961Z,80
2017-12-22T13:45:25.709Z,80
2017-12-22T13:46:25.672Z,75
2017-12-22T13:47:25.924Z,75
2017-12-22T13:48:25.917Z,75
2017-12-22T13:49:25.922Z,70
2017-12-22T13:50:25.897Z,65
2017-12-22T13:51:25.897Z,65
2017-12-22T13:52:25.899Z,60
2017-12-22T13:53:25.619Z,60
2017-12-22T13:54:25.847Z,60
2017-12-22T13:55:25.907Z,60
2017-12-22T13:56:25.835Z,60
2017-12-22T13:57:25.826Z,60
2017-12-22T13:58:25.548Z,65
2017-12-22T13:59:25.564Z,65
2017-12-22T14:00:25.530Z,65
2017-12-22T14:01:25.577Z,65
2017-12-22T14:02:25.784Z,60
2017-12-22T14:03:25.767Z,60
2017-12-22T14:04:25.760Z,60
2017-12-22T14:05:25.761Z,60
2017-12-22T14:06:25.745Z,55
2017-12-22T14:07:25.214Z,55
2017-12-22T14:08:25.793Z,55
2017-12-22T14:09:25.836Z,55
2017-12-22T14:10:25.439Z,50
2017-12-22T14:11:25.701Z,50
2017-12-22T14:12:25.691Z,50
2017-12-22T14:13:25.428Z,45
2017-12-22T14:14:25.666Z,45
2017-12-22T14:15:25.373Z,45
2017-12-22T14:16:25.638Z,40
2017-12-22T14:17:25.660Z,40
2017-12-22T14:18:25.653Z,35
2017-12-22T14:19:25.605Z,35
2017-12-22T14:20:25.597Z,35
2017-12-22T14:21:25.609Z,35
2017-12-22T14:22:25.608Z,30
2017-12-22T14:23:25.585Z,30
2017-12-22T14:24:25.303Z,30